Accueil
METAR-TAF:

METAR-TAF

Aéroports :

Aéroport international Martinique Aimé Césaire

Fort-de-France, Martinique

latitude: 14-36N, longitude: 061-00W, altitude: 5 m

Observation

Le bulletin a été fait il y a 36 minutes, à 16:30 UTC
Vent 10 kt de est/nord-est, variant entre nord/nord-est et est
Température 28°C
Humidité 70%
Pression 1014 hPa
Visibilité 10 km ou plus
Quelques nuages à une hauteur de 3500 ft
Nuages fragmentés à une hauteur de 4300 ft
Nuages fragmentés à une hauteur de 5600 ft
pluie faible

METAR: TFFF 031630Z AUTO 07010KT 030V100 9999 -RA FEW035 BKN043 BKN056 28/22 Q1014 NOSIG

Heure: 13:06 (17:06 UTC)

Prévision

Le bulletin a été fait il y a 6 heures et 6 minutes, à 11:00 UTC
Prévision valable du 03 à 12 UTC au 04 à 12 UTC
Vent 8 kt de est
Visibilité 10 km ou plus
Nuages épars à une hauteur de 3000 ft

TAF: TFFF 031100Z 0312/0412 08008KT 9999 SCT030

Observations et prévisions météorologiques de plus de 4000 aéroports (messages METAR et TAF).

Les stations disponibles sont représentées par des disques jaunes et rouges sur la carte.

Passer la souris dessus pour voir le nom de la station.

Cliquer dessus pour voir les observations et prévisions météorologiques.

Pour changer de carte: cliquez sur les boutons verts avec une croix noire pour zoomer, sur le bouton vert avec un tiret pour effectuer un zoom arrière, ou sur les flèches vertes pour les cartes adjacentes.


METAR-TAF: